createdAt,value
2023-11-05T00:01:38.138Z,2.35
2023-11-05T00:04:23.606Z,2.58
2023-11-05T00:07:09.074Z,2.25
2023-11-05T00:09:54.662Z,2.13
2023-11-05T00:12:40.691Z,2.63
2023-11-05T00:15:27.262Z,1.92
2023-11-05T00:18:14.013Z,2.60
2023-11-05T00:21:00.319Z,2.40
2023-11-05T00:23:45.736Z,1.98
2023-11-05T00:26:31.618Z,2.97
2023-11-05T00:29:17.612Z,2.08
2023-11-05T00:32:03.525Z,1.50
2023-11-05T00:34:49.105Z,2.33
2023-11-05T00:37:34.596Z,2.45
2023-11-05T00:40:20.208Z,2.90
2023-11-05T00:43:07.769Z,2.38
2023-11-05T00:45:53.444Z,2.53
2023-11-05T00:48:39.055Z,3.92
2023-11-05T00:51:24.698Z,1.70
2023-11-05T00:54:10.316Z,1.75
2023-11-05T00:56:55.637Z,2.20
2023-11-05T00:59:41.246Z,3.08
2023-11-05T01:02:26.867Z,2.40
2023-11-05T01:05:13.623Z,2.50
2023-11-05T01:07:58.990Z,1.65
2023-11-05T01:10:44.906Z,1.88
2023-11-05T01:13:30.251Z,2.00
2023-11-05T01:16:15.857Z,2.75
2023-11-05T01:19:01.487Z,3.80
2023-11-05T01:21:47.550Z,2.78
2023-11-05T01:24:32.993Z,2.33
2023-11-05T01:27:18.663Z,2.03
2023-11-05T01:30:04.785Z,2.22
2023-11-05T01:32:51.031Z,1.98
2023-11-05T01:35:36.538Z,2.40
2023-11-05T01:38:22.165Z,2.08
2023-11-05T01:41:07.773Z,4.18
2023-11-05T01:43:53.318Z,1.40
2023-11-05T01:46:38.921Z,1.75
2023-11-05T01:49:24.730Z,2.15
2023-11-05T01:52:11.002Z,2.42
2023-11-05T01:54:57.663Z,4.57
2023-11-05T01:57:43.792Z,1.90
2023-11-05T02:00:29.902Z,1.70
2023-11-05T02:03:15.780Z,2.40
2023-11-05T02:06:01.380Z,2.28
2023-11-05T02:08:46.893Z,2.75
2023-11-05T02:11:32.455Z,1.98
2023-11-05T02:14:18.208Z,2.67
2023-11-05T02:17:03.869Z,2.88
2023-11-05T02:19:50.435Z,4.07
2023-11-05T02:22:37.643Z,2.92
2023-11-05T02:25:23.150Z,3.58
2023-11-05T02:28:09.061Z,4.22
2023-11-05T02:30:58.320Z,4.72
2023-11-05T02:33:44.687Z,2.08
2023-11-05T02:36:29.764Z,2.28
2023-11-05T02:39:15.545Z,3.20
2023-11-05T02:42:01.321Z,2.53
2023-11-05T02:44:46.946Z,3.13
2023-11-05T02:47:33.267Z,3.55
2023-11-05T02:50:18.950Z,3.00
2023-11-05T02:53:04.680Z,1.83
2023-11-05T02:55:50.198Z,3.28
2023-11-05T02:58:35.760Z,2.45
2023-11-05T03:01:26.070Z,4.78
2023-11-05T03:04:11.683Z,4.10
2023-11-05T03:06:57.189Z,2.13
2023-11-05T03:09:43.957Z,3.88
2023-11-05T03:12:29.543Z,3.00
2023-11-05T03:15:15.195Z,4.13
2023-11-05T03:18:00.758Z,5.32
2023-11-05T03:20:46.468Z,2.35
2023-11-05T03:23:31.781Z,3.00
2023-11-05T03:26:17.336Z,3.05
2023-11-05T03:29:02.992Z,2.40
2023-11-05T03:31:50.690Z,4.35
2023-11-05T03:34:35.896Z,5.03
2023-11-05T03:37:21.863Z,3.60
2023-11-05T03:40:07.663Z,2.63
2023-11-05T03:42:53.280Z,3.13
2023-11-05T03:45:39.348Z,3.50
2023-11-05T03:48:24.885Z,4.72
2023-11-05T03:51:15.042Z,2.28
2023-11-05T03:54:00.788Z,4.53
2023-11-05T03:56:46.257Z,4.78
2023-11-05T03:59:33.238Z,1.77
2023-11-05T04:02:18.556Z,4.32
2023-11-05T04:05:04.414Z,3.35
2023-11-05T04:07:53.039Z,3.78
2023-11-05T04:10:38.305Z,3.33
2023-11-05T04:13:23.886Z,3.80
2023-11-05T04:16:10.283Z,3.80
2023-11-05T04:18:57.147Z,4.05
2023-11-05T04:21:42.388Z,1.70
2023-11-05T04:24:27.898Z,4.38
2023-11-05T04:27:13.531Z,3.45
2023-11-05T04:29:59.251Z,4.15
2023-11-05T04:32:44.770Z,3.40
2023-11-05T04:35:30.252Z,3.88
2023-11-05T04:38:15.720Z,3.33
2023-11-05T04:41:01.203Z,2.97
2023-11-05T04:43:47.269Z,3.70
2023-11-05T04:46:39.809Z,5.50
2023-11-05T04:49:28.422Z,2.45
2023-11-05T04:52:14.353Z,3.95
2023-11-05T04:55:01.320Z,3.45
2023-11-05T04:57:47.261Z,4.53
2023-11-05T05:00:33.079Z,2.83
2023-11-05T05:03:19.226Z,3.42
2023-11-05T05:06:05.587Z,3.22
2023-11-05T05:08:51.732Z,3.58
2023-11-05T05:11:37.059Z,6.75
2023-11-05T05:14:23.021Z,6.35
2023-11-05T05:17:09.002Z,4.00
2023-11-05T05:19:54.349Z,1.90
2023-11-05T05:22:40.291Z,3.13
2023-11-05T05:25:25.644Z,2.05
2023-11-05T05:28:11.742Z,4.97
2023-11-05T05:30:57.900Z,3.47
2023-11-05T05:33:43.867Z,3.97
2023-11-05T05:36:29.373Z,4.65
2023-11-05T05:39:15.150Z,6.60
2023-11-05T05:42:04.757Z,2.15
2023-11-05T05:44:50.903Z,3.90
2023-11-05T05:47:36.870Z,5.78
2023-11-05T05:50:22.132Z,3.72
2023-11-05T05:53:07.644Z,3.83
2023-11-05T05:55:53.097Z,3.90
2023-11-05T05:58:39.465Z,4.68
2023-11-05T06:01:25.350Z,3.55
2023-11-05T06:04:11.065Z,5.35
2023-11-05T06:06:56.892Z,4.00
2023-11-05T06:09:42.606Z,2.78
2023-11-05T06:12:28.919Z,2.63
2023-11-05T06:15:14.220Z,5.47
2023-11-05T06:17:59.907Z,3.55
2023-11-05T06:20:45.819Z,4.50
2023-11-05T06:23:31.504Z,1.90
2023-11-05T06:26:17.549Z,2.45
2023-11-05T06:29:03.666Z,4.55
2023-11-05T06:31:49.330Z,2.22
2023-11-05T06:34:34.966Z,2.50
2023-11-05T06:37:20.942Z,2.20
2023-11-05T06:40:06.993Z,2.72
2023-11-05T06:42:52.639Z,3.30
2023-11-05T06:45:38.121Z,2.95
2023-11-05T06:48:25.222Z,2.60
2023-11-05T06:51:10.821Z,1.25
2023-11-05T06:53:56.229Z,2.15
2023-11-05T06:56:42.413Z,2.53
2023-11-05T06:59:28.320Z,2.10
2023-11-05T07:02:14.206Z,3.10
2023-11-05T07:05:02.609Z,3.70
2023-11-05T07:07:48.765Z,3.38
2023-11-05T07:10:34.717Z,2.92
2023-11-05T07:13:20.430Z,1.73
2023-11-05T07:16:06.551Z,3.17
2023-11-05T07:18:53.178Z,3.80
2023-11-05T07:21:38.676Z,1.92
2023-11-05T07:24:25.993Z,1.42
2023-11-05T07:27:11.437Z,1.80
2023-11-05T07:29:56.986Z,3.72
2023-11-05T07:32:42.605Z,2.28
2023-11-05T07:35:27.806Z,1.98
2023-11-05T07:38:13.257Z,1.27
2023-11-05T07:40:58.963Z,4.53
2023-11-05T07:43:44.500Z,2.40
2023-11-05T07:46:30.152Z,3.17
2023-11-05T07:49:16.139Z,3.03
2023-11-05T07:52:01.824Z,2.63
2023-11-05T07:54:47.117Z,3.05
2023-11-05T07:57:35.018Z,1.85
2023-11-05T08:00:20.259Z,4.13
2023-11-05T08:03:06.208Z,2.40
2023-11-05T08:05:51.650Z,2.45
2023-11-05T08:08:37.120Z,2.63
2023-11-05T08:11:23.268Z,2.92
2023-11-05T08:14:10.711Z,3.05
2023-11-05T08:16:56.109Z,1.60
2023-11-05T08:19:42.144Z,2.13
2023-11-05T08:22:27.927Z,2.75
2023-11-05T08:25:15.191Z,1.17
2023-11-05T08:28:05.140Z,3.42
2023-11-05T08:30:55.114Z,1.10
2023-11-05T08:33:41.315Z,1.63
2023-11-05T08:36:27.699Z,1.52
2023-11-05T08:39:13.040Z,2.50
2023-11-05T08:41:58.617Z,1.15
2023-11-05T08:44:44.214Z,0.93
2023-11-05T08:47:29.761Z,1.98
2023-11-05T08:50:15.643Z,1.98
2023-11-05T08:53:01.210Z,1.13
2023-11-05T08:55:48.480Z,1.83
2023-11-05T08:58:34.277Z,1.15
2023-11-05T09:01:19.910Z,1.30
2023-11-05T09:04:06.137Z,2.13
2023-11-05T09:06:51.819Z,2.80
2023-11-05T09:09:38.822Z,1.52
2023-11-05T09:12:24.635Z,2.25
2023-11-05T09:15:10.290Z,1.10
2023-11-05T09:17:56.465Z,1.88
2023-11-05T09:20:41.947Z,0.90
2023-11-05T09:23:27.735Z,1.00
2023-11-05T09:26:14.915Z,0.80
2023-11-05T09:29:00.414Z,0.95
2023-11-05T09:31:45.978Z,2.13
2023-11-05T09:34:32.387Z,0.80
2023-11-05T09:37:18.123Z,1.48
2023-11-05T09:40:04.175Z,1.92
2023-11-05T09:43:07.000Z,1.35
2023-11-05T09:45:53.662Z,1.20
2023-11-05T09:48:38.773Z,1.02
2023-11-05T09:51:24.359Z,0.82
2023-11-05T09:54:09.964Z,3.35
2023-11-05T09:56:56.789Z,0.65
2023-11-05T09:59:50.144Z,0.80
2023-11-05T10:02:54.296Z,1.48
2023-11-05T10:05:45.236Z,1.40
2023-11-05T10:08:35.196Z,1.40
2023-11-05T10:11:21.573Z,1.98
2023-11-05T10:14:06.954Z,1.00
2023-11-05T10:16:54.815Z,1.30
2023-11-05T10:19:42.161Z,0.80
2023-11-05T10:22:28.432Z,0.60
2023-11-05T10:25:33.296Z,0.80
2023-11-05T10:28:24.571Z,1.30
2023-11-05T10:31:11.949Z,0.85
2023-11-05T10:34:00.626Z,1.70
2023-11-05T10:36:46.454Z,1.17
2023-11-05T10:39:32.129Z,1.15
2023-11-05T10:42:19.183Z,2.13
2023-11-05T10:45:08.079Z,1.70
2023-11-05T10:47:53.886Z,0.80
2023-11-05T10:50:40.703Z,1.75
2023-11-05T10:53:26.193Z,0.55
2023-11-05T10:56:34.786Z,1.30
2023-11-05T10:59:39.120Z,1.40
2023-11-05T11:02:24.849Z,0.80
2023-11-05T11:05:30.848Z,1.15
2023-11-05T11:08:22.256Z,2.35
2023-11-05T11:11:13.341Z,0.70
2023-11-05T11:13:59.653Z,0.60
2023-11-05T11:16:46.602Z,0.82
2023-11-05T11:19:32.093Z,0.80
2023-11-05T11:22:17.921Z,1.52
2023-11-05T11:25:04.600Z,1.10
2023-11-05T11:27:51.036Z,1.30
2023-11-05T11:30:37.635Z,1.13
2023-11-05T11:33:25.269Z,1.02
2023-11-05T11:36:12.190Z,0.80
2023-11-05T11:38:57.800Z,0.90
2023-11-05T11:41:43.501Z,0.60
2023-11-05T11:44:29.179Z,0.60
2023-11-05T11:47:15.306Z,0.90
2023-11-05T11:50:07.956Z,0.95
2023-11-05T11:52:57.052Z,0.77
2023-11-05T11:55:42.738Z,1.77
2023-11-05T11:58:29.246Z,0.93
2023-11-05T12:01:17.567Z,1.00
2023-11-05T12:04:04.120Z,1.20
2023-11-05T12:06:50.342Z,1.00
2023-11-05T12:09:35.777Z,0.82
2023-11-05T12:12:21.573Z,0.68
2023-11-05T12:15:14.944Z,1.30
2023-11-05T12:18:01.015Z,1.15
2023-11-05T12:20:47.112Z,1.15
2023-11-05T12:23:32.742Z,2.10
2023-11-05T12:26:18.557Z,1.83
2023-11-05T12:29:03.923Z,1.55
2023-11-05T12:31:49.593Z,1.85
2023-11-05T12:34:35.125Z,1.05
2023-11-05T12:37:20.726Z,1.35
2023-11-05T12:40:06.967Z,2.13
2023-11-05T12:42:52.491Z,1.10
2023-11-05T12:45:37.942Z,2.20
2023-11-05T12:48:31.180Z,1.35
2023-11-05T12:51:18.512Z,1.00
2023-11-05T12:54:05.135Z,2.70
2023-11-05T12:56:50.516Z,1.33
2023-11-05T12:59:40.174Z,1.00
2023-11-05T13:02:25.990Z,1.20
2023-11-05T13:05:11.930Z,1.85
2023-11-05T13:07:57.408Z,1.58
2023-11-05T13:10:43.069Z,1.27
2023-11-05T13:13:28.509Z,2.05
2023-11-05T13:16:14.250Z,1.25
2023-11-05T13:19:00.267Z,2.00
2023-11-05T13:21:46.113Z,0.90
2023-11-05T13:24:31.607Z,1.13
2023-11-05T13:27:17.257Z,0.80
2023-11-05T13:30:03.867Z,1.55
2023-11-05T13:32:50.171Z,2.30
2023-11-05T13:35:35.852Z,8.20
2023-11-05T13:38:21.425Z,2.78
2023-11-05T13:41:07.496Z,2.92
2023-11-05T13:43:53.164Z,2.55
2023-11-05T13:46:38.565Z,1.15
2023-11-05T13:49:24.208Z,1.60
2023-11-05T13:52:10.042Z,1.92
2023-11-05T13:54:55.504Z,2.70
2023-11-05T13:57:41.426Z,3.78
2023-11-05T14:00:28.668Z,1.90
2023-11-05T14:03:14.577Z,1.67
2023-11-05T14:06:00.209Z,1.80
2023-11-05T14:08:46.100Z,1.30
2023-11-05T14:11:31.485Z,2.20
2023-11-05T14:14:17.252Z,1.50
2023-11-05T14:17:02.881Z,1.58
2023-11-05T14:19:48.606Z,2.42
2023-11-05T14:22:34.459Z,2.67
2023-11-05T14:25:20.154Z,4.05
2023-11-05T14:28:06.217Z,2.10
2023-11-05T14:30:51.868Z,2.15
2023-11-05T14:33:38.430Z,1.92
2023-11-05T14:36:24.147Z,1.90
2023-11-05T14:39:11.260Z,2.90
2023-11-05T14:41:58.346Z,1.85
2023-11-05T14:44:46.188Z,2.55
2023-11-05T14:47:31.481Z,2.85
2023-11-05T14:50:17.115Z,2.10
2023-11-05T14:53:04.015Z,3.65
2023-11-05T14:55:49.727Z,2.83
2023-11-05T14:58:36.491Z,3.15
2023-11-05T15:01:22.255Z,4.85
2023-11-05T15:04:08.094Z,4.38
2023-11-05T15:06:53.619Z,4.00
2023-11-05T15:09:40.520Z,2.80
2023-11-05T15:12:28.487Z,4.38
2023-11-05T15:15:13.801Z,4.32
2023-11-05T15:17:59.993Z,4.07
2023-11-05T15:20:47.981Z,2.90
2023-11-05T15:23:33.538Z,4.95
2023-11-05T15:26:23.803Z,3.53
2023-11-05T15:29:09.730Z,4.20
2023-11-05T15:31:55.682Z,3.67
2023-11-05T15:34:41.806Z,4.55
2023-11-05T15:37:29.220Z,6.18
2023-11-05T15:40:15.273Z,2.60
2023-11-05T15:43:02.259Z,3.03
2023-11-05T15:45:48.934Z,3.60
2023-11-05T15:48:34.762Z,3.05
2023-11-05T15:51:23.413Z,3.40
2023-11-05T15:54:08.980Z,4.60
2023-11-05T15:56:54.701Z,3.53
2023-11-05T15:59:40.365Z,5.30
2023-11-05T16:02:26.138Z,9.57
2023-11-05T16:05:12.939Z,5.10
2023-11-05T16:08:01.188Z,4.70
2023-11-05T16:10:47.120Z,3.20
2023-11-05T16:13:33.134Z,4.60
2023-11-05T16:16:19.172Z,4.13
2023-11-05T16:19:04.739Z,6.97
2023-11-05T16:21:50.302Z,5.30
2023-11-05T16:24:37.449Z,5.22
2023-11-05T16:27:23.369Z,4.97
2023-11-05T16:30:11.002Z,4.82
2023-11-05T16:32:57.131Z,5.38
2023-11-05T16:35:42.841Z,4.70
2023-11-05T16:38:28.107Z,5.15
2023-11-05T16:41:14.018Z,5.20
2023-11-05T16:44:00.460Z,6.05
2023-11-05T16:46:46.553Z,5.03
2023-11-05T16:49:33.574Z,4.72
2023-11-05T16:52:19.815Z,4.55
2023-11-05T16:55:06.108Z,4.78
2023-11-05T16:57:51.766Z,4.60
2023-11-05T17:00:37.565Z,8.00
2023-11-05T17:03:25.105Z,5.95
2023-11-05T17:06:11.637Z,5.50
2023-11-05T17:08:57.108Z,8.18
2023-11-05T17:11:44.935Z,5.57
2023-11-05T17:14:30.211Z,4.18
2023-11-05T17:17:15.817Z,6.18
2023-11-05T17:20:01.738Z,6.07
2023-11-05T17:22:49.306Z,5.50
2023-11-05T17:25:35.067Z,6.30
2023-11-05T17:28:22.634Z,5.65
2023-11-05T17:31:08.617Z,4.30
2023-11-05T17:33:54.065Z,4.80
2023-11-05T17:36:39.694Z,6.22
2023-11-05T17:39:25.186Z,4.97
2023-11-05T17:42:10.716Z,4.80
2023-11-05T17:44:56.244Z,4.45
2023-11-05T17:47:45.064Z,5.30
2023-11-05T17:50:30.575Z,7.35
2023-11-05T17:53:16.066Z,3.97
2023-11-05T17:56:01.635Z,4.55
2023-11-05T17:58:47.361Z,3.90
2023-11-05T18:01:32.753Z,5.22
2023-11-05T18:04:18.691Z,3.92
2023-11-05T18:07:04.697Z,4.65
2023-11-05T18:09:50.134Z,3.92
2023-11-05T18:12:35.518Z,3.92
2023-11-05T18:15:21.483Z,4.13
2023-11-05T18:18:06.795Z,5.32
2023-11-05T18:20:56.377Z,4.38
2023-11-05T18:23:43.303Z,3.83
2023-11-05T18:26:28.880Z,6.60
2023-11-05T18:29:14.535Z,3.80
2023-11-05T18:31:59.734Z,3.60
2023-11-05T18:34:45.969Z,4.32
2023-11-05T18:37:34.361Z,3.30
2023-11-05T18:40:19.686Z,5.32
2023-11-05T18:43:05.381Z,4.63
2023-11-05T18:45:50.869Z,3.95
2023-11-05T18:48:36.515Z,4.65
2023-11-05T18:51:22.696Z,5.13
2023-11-05T18:54:11.449Z,11.70
2023-11-05T18:56:57.245Z,7.95
2023-11-05T18:59:42.951Z,9.07
2023-11-05T19:02:29.255Z,4.63
2023-11-05T19:05:15.601Z,5.57
2023-11-05T19:08:00.977Z,5.88
2023-11-05T19:10:47.658Z,5.18
2023-11-05T19:13:33.962Z,4.40
2023-11-05T19:16:19.891Z,6.05
2023-11-05T19:19:05.655Z,4.63
2023-11-05T19:21:51.427Z,5.50
2023-11-05T19:24:43.336Z,14.52
2023-11-05T19:27:28.992Z,16.13
2023-11-05T19:30:16.280Z,9.77
2023-11-05T19:33:01.910Z,6.22
2023-11-05T19:35:47.397Z,11.65
2023-11-05T19:38:33.174Z,6.60
2023-11-05T19:41:28.087Z,10.82
2023-11-05T19:44:14.653Z,9.07
2023-11-05T19:47:02.577Z,6.85
2023-11-05T19:49:50.592Z,6.20
2023-11-05T19:52:36.198Z,7.13
2023-11-05T19:55:21.414Z,7.82
2023-11-05T19:58:08.995Z,6.82
2023-11-05T20:00:55.402Z,5.28
2023-11-05T20:03:46.709Z,3.22
2023-11-05T20:06:32.258Z,6.57
2023-11-05T20:09:18.148Z,4.57
2023-11-05T20:12:04.132Z,6.47
2023-11-05T20:14:49.727Z,7.80
2023-11-05T20:17:36.929Z,4.80
2023-11-05T20:20:22.476Z,6.18
2023-11-05T20:23:08.096Z,4.55
2023-11-05T20:25:53.746Z,4.70
2023-11-05T20:28:41.422Z,3.75
2023-11-05T20:31:27.880Z,5.03
2023-11-05T20:34:13.685Z,5.13
2023-11-05T20:36:59.611Z,4.68
2023-11-05T20:39:45.429Z,6.43
2023-11-05T20:42:31.656Z,2.22
2023-11-05T20:45:19.346Z,5.75
2023-11-05T20:48:06.522Z,4.13
2023-11-05T20:50:51.965Z,2.92
2023-11-05T20:53:37.524Z,3.58
2023-11-05T20:56:23.193Z,4.32
2023-11-05T20:59:08.673Z,4.38
2023-11-05T21:01:54.440Z,5.13
2023-11-05T21:04:39.930Z,5.32
2023-11-05T21:07:25.948Z,4.38
2023-11-05T21:10:11.774Z,3.90
2023-11-05T21:12:57.420Z,2.83
2023-11-05T21:15:42.907Z,2.40
2023-11-05T21:18:29.094Z,3.60
2023-11-05T21:21:14.534Z,3.20
2023-11-05T21:24:00.156Z,5.43
2023-11-05T21:26:45.612Z,3.72
2023-11-05T21:29:31.256Z,2.83
2023-11-05T21:32:16.951Z,3.10
2023-11-05T21:35:02.465Z,5.00
2023-11-05T21:37:47.909Z,3.10
2023-11-05T21:40:33.422Z,6.53
2023-11-05T21:43:19.089Z,2.80
2023-11-05T21:46:09.888Z,4.88
2023-11-05T21:49:00.132Z,3.08
2023-11-05T21:51:45.632Z,5.13
2023-11-05T21:54:31.713Z,5.18
2023-11-05T21:57:18.259Z,4.88
2023-11-05T22:00:04.235Z,3.67
2023-11-05T22:02:50.917Z,10.45
2023-11-05T22:05:37.322Z,3.05
2023-11-05T22:08:23.039Z,3.08
2023-11-05T22:11:09.673Z,3.13
2023-11-05T22:13:55.365Z,4.95
2023-11-05T22:16:44.997Z,2.97
2023-11-05T22:19:30.525Z,4.40
2023-11-05T22:22:16.265Z,5.15
2023-11-05T22:25:02.055Z,4.97
2023-11-05T22:27:47.743Z,6.88
2023-11-05T22:30:33.188Z,3.47
2023-11-05T22:33:18.953Z,3.25
2023-11-05T22:36:04.801Z,3.53
2023-11-05T22:38:50.674Z,5.00
2023-11-05T22:41:36.341Z,3.90
2023-11-05T22:44:22.097Z,3.42
2023-11-05T22:47:08.061Z,3.15
2023-11-05T22:49:54.432Z,2.83
2023-11-05T22:52:42.420Z,3.22
2023-11-05T22:55:28.803Z,2.13
2023-11-05T22:58:14.364Z,4.38
2023-11-05T23:01:00.460Z,4.13
2023-11-05T23:03:55.510Z,5.13
2023-11-05T23:06:41.482Z,4.68
2023-11-05T23:09:27.086Z,2.70
2023-11-05T23:12:12.780Z,3.58
2023-11-05T23:14:59.111Z,3.90
2023-11-05T23:17:44.751Z,3.58
2023-11-05T23:20:30.731Z,2.92
2023-11-05T23:23:16.692Z,2.42
2023-11-05T23:26:02.155Z,4.22
2023-11-05T23:28:47.922Z,2.90
2023-11-05T23:31:33.351Z,3.55
2023-11-05T23:34:18.855Z,5.70
2023-11-05T23:37:04.544Z,4.43
2023-11-05T23:39:50.707Z,3.30
2023-11-05T23:42:37.212Z,3.22
2023-11-05T23:45:22.557Z,3.72
2023-11-05T23:48:08.302Z,4.53
2023-11-05T23:50:53.968Z,5.15
2023-11-05T23:53:39.440Z,3.50
2023-11-05T23:56:25.107Z,3.47
2023-11-05T23:59:10.706Z,3.40
